HOURLY OBS INDEX

092

East Coast

FINGAL (LEGGE STREET)

Site: 092012
Alt: 237.0m
38km NW of BICHENO


  Time     Wind        Temp  DP   Baro     Rain since   Rain past  Vis(m), Cloud(base in m), Weather
  local        km/h                         9am  last   hr   10m    
Fri 23:00    C  0/  0   5.3  4.0  ------   21.2   0.0   0.0   0.0   ----- 
Fri 23:30  WSW  7/ 11   5.1  3.8  ------   21.2   0.0   0.0   0.0   ----- 
Sat 00:00  SSW  9/ 15   5.1  3.9  ------   21.2   0.0   0.0   0.0   ----- 
Sat 00:30  WSW  9/ 17   4.9  3.7  ------   21.2   0.0   0.0   0.0   ----- 
Sat 01:00  WSW  9/ 15   5.8  4.6  ------   21.2   0.0   0.0   0.0   ----- 
Sat 01:30  WSW  9/ 17   5.8  4.0  ------   21.2   0.0   0.0   0.0   ----- 
Sat 02:00  WSW  7/ 11   5.7  4.2  ------   21.2   0.0   0.0   0.0   ----- 
Sat 02:30    W  9/ 13   5.7  4.0  ------   21.2   0.0   0.0   0.0   ----- 
Sat 03:00    W  9/ 13   6.0  4.2  ------   21.2   0.0   0.0   0.0   ----- 
Sat 03:30    W  7/ 13   5.8  3.8  ------   21.2   0.0   0.0   0.0   ----- 
Sat 04:00    W  9/ 15   5.5  3.7  ------   21.2   0.0   0.0   0.0   ----- 
Sat 04:30   SW  9/ 19   7.0  3.6  ------   21.2   0.0   0.0   0.0   ----- 

FRIENDLY BEACHES

Site: 092114
Alt: 55.0m
13km S of BICHENO


  Time     Wind        Temp  DP   Baro     Rain since   Rain past  Vis(m), Cloud(base in m), Weather
  local        km/h                         9am  last   hr   10m    
Fri 23:00    W 11/ 17   7.2  7.2   999.7    3.2   0.0   0.0   0.0   ----- 
Fri 23:30    W 13/ 19   7.3  7.3   999.5    3.2   0.0   0.0   0.0   ----- 
Sat 00:00    W 11/ 17   7.3  7.3   999.5    3.2   0.0   0.0   0.0   ----- 
Sat 00:30    W 13/ 20   6.9  6.9   999.5    3.2   0.0   0.0   0.0   ----- 
Sat 01:00    W 13/ 20   6.6  6.6   999.5    3.2   0.0   0.0   0.0   ----- 
Sat 01:30    W 13/ 20   6.6  6.6   999.4    3.2   0.0   0.0   0.0   ----- 
Sat 02:00  WSW 13/ 20   6.8  6.8   999.3    3.2   0.0   0.0   0.0   ----- 
Sat 02:30  WSW 13/ 19   7.0  7.0   999.2    3.2   0.0   0.0   0.0   ----- 
Sat 03:00  WSW 15/ 19   7.0  7.0   999.2    3.2   0.0   0.0   0.0   ----- 
Sat 03:30  WSW  9/ 15   7.0  6.7   999.4    3.2   0.0   0.0   0.0   ----- 
Sat 04:00  WSW  9/ 15   7.0  6.7   999.7    3.2   0.0   0.0   0.0   ----- 
Sat 04:30  WSW 11/ 15   6.8  6.5   999.9    3.2   0.0   0.0   0.0   ----- 

LARAPUNA (EDDYSTONE POINT)

Site: 092045
Alt: 19.7m
38km NNE of ST HELENS


  Time     Wind        Temp  DP   Baro     Rain since   Rain past  Vis(m), Cloud(base in m), Weather
  local        km/h                         9am  last   hr   10m    
Fri 23:00  SSW 24/ 30   8.4  8.4   999.1    7.2   0.0   0.0   0.0   ----- 
Fri 23:30   SW 15/ 19   7.9  7.9   999.1    7.2   0.0   0.0   0.0   ----- 
Sat 00:00  WSW 13/ 15   7.5  7.5   999.1    7.2   0.0   0.0   0.0   ----- 
Sat 00:30  WSW 13/ 15   7.2  7.2   999.1    7.2   0.0   0.0   0.0   ----- 
Sat 01:00   SW 15/ 17   7.7  7.7   999.1    7.2   0.0   0.0   0.0   ----- 
Sat 01:30  WSW 17/ 20   7.3  7.3   998.9    7.2   0.0   0.0   0.0   ----- 
Sat 02:00  WSW 22/ 26   7.5  7.4   998.7    7.2   0.0   0.0   0.0   ----- 
Sat 02:30  WSW 20/ 26   7.6  7.5   998.8    7.2   0.0   0.0   0.0   ----- 
Sat 03:00   SW 19/ 24   7.9  7.8   998.9    7.2   0.0   0.0   0.0   ----- 
Sat 03:30   SW 20/ 26   7.7  7.7   998.9    7.2   0.0   0.0   0.0   ----- 
Sat 04:00  SSW 28/ 32   8.2  8.2   999.1    7.2   0.0   0.0   0.0   ----- 
Sat 04:30  SSW 30/ 37   8.5  8.5   999.2    7.2   0.0   0.0   0.0   ----- 

MARIA ISLAND (POINT LESUEUR)

Site: 092124
Alt: 28.0m
55km NNE of PORT ARTHUR


  Time     Wind        Temp  DP   Baro     Rain since   Rain past  Vis(m), Cloud(base in m), Weather
  local        km/h                         9am  last   hr   10m    
Fri 23:00  SSW  2/  4   8.4  7.2  1000.5    9.2   0.0   0.0   0.0   ----- 
Fri 23:30  SSW 15/ 24   8.8  7.6  1000.5    9.2   0.0   0.0   0.0   ----- 
Sat 00:00    S 26/ 28   9.1  7.4  1000.4    9.2   0.0   0.0   0.0   ----- 
Sat 00:30    S 26/ 30   9.2  7.0  1000.3    9.2   0.0   0.0   0.0   ----- 
Sat 01:00    S 26/ 30   9.1  6.7  1000.2    9.2   0.0   0.0   0.0   ----- 
Sat 01:30    S 24/ 28   9.2  7.0  1000.1    9.2   0.0   0.0   0.0   ----- 
Sat 02:00    S 20/ 24   9.0  6.8   999.8    9.2   0.0   0.0   0.0   ----- 
Sat 02:30  SSW 20/ 26   9.2  6.6   999.7    9.2   0.0   0.0   0.0   ----- 
Sat 03:00  SSW 32/ 35   8.9  6.5   999.6    9.2   0.0   0.0   0.0   ----- 
Sat 03:30  SSW 32/ 37   9.2  6.1   999.7    9.2   0.0   0.0   0.0   ----- 
Sat 04:00   SW 37/ 46   9.1  6.5   999.8    9.2   0.0   0.0   0.0   ----- 
Sat 04:30   SW 45/ 54   8.9  7.4   999.8    9.2   0.0   0.0   0.0   ----- 

SPRING BAY NTC AWS

Site: 092133
Alt: 0.0m
48km SSW of SWANSEA


  Time     Wind        Temp  DP   Baro     Rain since   Rain past  Vis(m), Cloud(base in m), Weather
  local        km/h                         9am  last   hr   10m    
Fri 23:00  ------/---   8.5----  1000.5   ----  ----  ----  ----   ----- 
Fri 23:30  ------/---   8.3----  1000.5   ----  ----  ----  ----   ----- 
Sat 00:00  ------/---   8.4----  1000.5   ----  ----  ----  ----   ----- 
Sat 00:30  ------/---   8.3----  1000.5   ----  ----  ----  ----   ----- 
Sat 01:00  ------/---   8.2----  1000.3   ----  ----  ----  ----   ----- 
Sat 01:30  ------/---   8.3----  1000.2   ----  ----  ----  ----   ----- 
Sat 02:00  ------/---   8.4----  1000.0   ----  ----  ----  ----   ----- 
Sat 02:30  ------/---   8.4----   999.7   ----  ----  ----  ----   ----- 
Sat 03:00  ------/---   8.3----   999.8   ----  ----  ----  ----   ----- 
Sat 03:30  ------/---   8.2----  1000.0   ----  ----  ----  ----   ----- 
Sat 04:00  ------/---   8.4----  1000.1   ----  ----  ----  ----   ----- 
Sat 04:30  ------/---   8.6----  1000.5   ----   0.0   0.0  ----   ----- 

ST HELENS AERODROME

Site: 092120
Alt: 48.0m
3km ESE of ST HELENS


  Time     Wind        Temp  DP   Baro     Rain since   Rain past  Vis(m), Cloud(base in m), Weather
  local        km/h                         9am  last   hr   10m    
Fri 23:00  SSW 11/ 15   6.5  6.4   999.3   23.0   0.0   0.2   0.0   10000|SC2250 OC3300 
Fri 23:30  SSW  9/ 17   6.7  6.6   999.0   23.0   0.0   0.0   0.0   10000|BR3000 OC3300 
Sat 00:00   SW  2/  9   7.0  6.3   999.0   23.0   0.0   0.0   0.0   10000|SC3000 
Sat 00:30    W  7/  9   7.2  6.6   999.2   23.0   0.0   0.0   0.0   10000|SC2550 
Sat 01:00    W  7/  9   7.0  6.4   999.1   23.0   0.0   0.0   0.0   10000|BR 960 
Sat 01:30  WSW  7/ 13   7.3  5.9   999.0   23.0   0.0   0.0   0.0   10000|SC 960 BR1830 
Sat 02:00  SSW 13/ 20   7.2  5.8   998.8   23.0   0.0   0.0   0.0   10000|BR1950 
Sat 02:30  SSW 15/ 26   7.3  6.1   998.7   23.0   0.0   0.0   0.0   10000|SC1740 
Sat 03:00  SSW 19/ 28   7.9  5.9   999.0   23.0   0.0   0.0   0.0   10000|OC1710 
Sat 03:30  SSW 13/ 22   7.7  5.7   999.2   23.0   0.0   0.0   0.0   10000|OC1860 
Sat 04:00  SSW 13/ 20   7.5  5.5   999.4   23.0   0.0   0.0   0.0   10000|BR1920 
Sat 04:30  SSW 15/ 26   8.1  5.6   999.7   23.0   0.0   0.0   0.0   10000|OC1980 

SWAN ISLAND

Site: 092123
Alt: 15.0m
67km N of ST HELENS


  Time     Wind        Temp  DP   Baro     Rain since   Rain past  Vis(m), Cloud(base in m), Weather
  local        km/h                         9am  last   hr   10m    
Fri 23:00  SSW 11/ 17   8.1  7.0   999.3    0.0   0.0   0.0   0.0   ----- 
Fri 23:30    S 11/ 20   8.2  6.8   999.2    0.0   0.0   0.0   0.0   ----- 
Sat 00:00  SSW  9/ 13   8.2  6.5   999.1    0.0   0.0   0.0   0.0   ----- 
Sat 00:30  SSW  7/ 11   8.2  6.5   999.1    0.0   0.0   0.0   0.0   ----- 
Sat 01:00   SW  7/ 11   7.9  6.4   999.1    0.0   0.0   0.0   0.0   ----- 
Sat 01:30  WSW 11/ 15   7.9  6.4   999.0    0.0   0.0   0.0   0.0   ----- 
Sat 02:00  WSW 13/ 17   7.8  6.3   999.0    0.0   0.0   0.0   0.0   ----- 
Sat 02:30  WSW 13/ 19   8.0  6.3   999.0    0.0   0.0   0.0   0.0   ----- 
Sat 03:00  WSW 13/ 20   8.1  6.1   998.9    0.0   0.0   0.0   0.0   ----- 
Sat 03:30  WSW 11/ 15   7.9  6.0   999.1    0.0   0.0   0.0   0.0   ----- 
Sat 04:00  WSW 11/ 15   7.9  5.9   999.2    0.0   0.0   0.0   0.0   ----- 
Sat 04:30   SW 11/ 17   8.1  5.9   999.5    0.0   0.0   0.0   0.0   -----